createdAt,value
2023-08-06T00:00:41.173Z,3.03
2023-08-06T00:03:07.847Z,3.20
2023-08-06T00:05:34.323Z,2.45
2023-08-06T00:08:00.721Z,2.50
2023-08-06T00:10:27.379Z,4.90
2023-08-06T00:12:53.739Z,5.00
2023-08-06T00:15:20.228Z,5.40
2023-08-06T00:17:46.661Z,4.30
2023-08-06T00:20:13.087Z,3.00
2023-08-06T00:22:39.665Z,4.60
2023-08-06T00:25:06.811Z,3.83
2023-08-06T00:27:36.256Z,4.47
2023-08-06T00:30:02.661Z,4.05
2023-08-06T00:32:29.086Z,3.42
2023-08-06T00:34:55.523Z,4.75
2023-08-06T00:37:24.001Z,4.05
2023-08-06T00:39:50.369Z,4.22
2023-08-06T00:42:21.584Z,3.92
2023-08-06T00:44:48.027Z,4.32
2023-08-06T00:47:14.597Z,4.93
2023-08-06T00:49:41.257Z,5.15
2023-08-06T00:52:08.365Z,4.07
2023-08-06T00:54:35.577Z,4.43
2023-08-06T00:57:02.624Z,4.80
2023-08-06T00:59:31.050Z,5.00
2023-08-06T01:01:57.545Z,3.55
2023-08-06T01:04:24.462Z,6.32
2023-08-06T01:07:00.262Z,4.22
2023-08-06T01:09:35.591Z,5.18
2023-08-06T01:12:19.680Z,3.75
2023-08-06T01:15:01.322Z,4.03
2023-08-06T01:17:27.887Z,8.63
2023-08-06T01:19:54.403Z,4.93
2023-08-06T01:22:20.822Z,2.67
2023-08-06T01:24:48.689Z,4.57
2023-08-06T01:27:22.860Z,3.72
2023-08-06T01:29:53.256Z,3.05
2023-08-06T01:32:21.162Z,3.22
2023-08-06T01:34:49.307Z,3.70
2023-08-06T01:37:15.830Z,3.92
2023-08-06T01:39:45.029Z,5.07
2023-08-06T01:42:11.436Z,4.07
2023-08-06T01:44:37.805Z,2.50
2023-08-06T01:47:04.244Z,2.95
2023-08-06T01:49:31.193Z,4.80
2023-08-06T01:51:57.593Z,3.78
2023-08-06T01:54:24.055Z,3.97
2023-08-06T01:56:50.487Z,5.07
2023-08-06T01:59:16.860Z,3.95
2023-08-06T02:01:43.227Z,2.50
2023-08-06T02:04:09.708Z,5.85
2023-08-06T02:06:36.194Z,3.60
2023-08-06T02:09:02.584Z,3.10
2023-08-06T02:11:28.964Z,2.70
2023-08-06T02:13:55.671Z,1.98
2023-08-06T02:16:22.138Z,1.30
2023-08-06T02:18:48.532Z,1.95
2023-08-06T02:21:14.950Z,0.88
2023-08-06T02:23:41.352Z,0.63
2023-08-06T02:26:07.759Z,0.90
2023-08-06T02:28:34.260Z,2.10
2023-08-06T02:31:00.816Z,2.05
2023-08-06T02:33:27.280Z,0.70
2023-08-06T02:36:00.248Z,1.70
2023-08-06T02:38:26.738Z,0.80
2023-08-06T02:40:53.137Z,0.50
2023-08-06T02:43:19.560Z,1.02
2023-08-06T02:45:45.976Z,1.25
2023-08-06T02:48:12.566Z,0.47
2023-08-06T02:50:42.436Z,0.90
2023-08-06T02:53:09.679Z,0.63
2023-08-06T02:55:36.300Z,0.63
2023-08-06T02:58:03.157Z,1.30
2023-08-06T03:00:29.706Z,0.75
2023-08-06T03:02:56.312Z,1.35
2023-08-06T03:05:22.799Z,4.70
2023-08-06T03:07:49.187Z,1.50
2023-08-06T03:10:15.682Z,3.75
2023-08-06T03:12:42.056Z,4.10
2023-08-06T03:15:08.706Z,3.88
2023-08-06T03:17:35.090Z,2.83
2023-08-06T03:20:01.512Z,3.33
2023-08-06T03:22:27.997Z,3.30
2023-08-06T03:24:54.368Z,3.17
2023-08-06T03:27:20.708Z,2.80
2023-08-06T03:29:49.574Z,4.25
2023-08-06T03:32:15.957Z,4.28
2023-08-06T03:34:42.343Z,3.22
2023-08-06T03:37:08.764Z,2.83
2023-08-06T03:39:35.249Z,6.07
2023-08-06T03:42:01.672Z,5.03
2023-08-06T03:44:29.401Z,3.20
2023-08-06T03:46:55.871Z,3.05
2023-08-06T03:49:22.319Z,2.42
2023-08-06T03:51:48.677Z,3.28
2023-08-06T03:54:15.068Z,4.28
2023-08-06T03:56:42.564Z,4.20
2023-08-06T03:59:08.986Z,5.82
2023-08-06T04:01:35.324Z,4.45
2023-08-06T04:04:01.724Z,3.67
2023-08-06T04:06:28.172Z,5.63
2023-08-06T04:08:54.572Z,3.53
2023-08-06T04:11:20.940Z,4.78
2023-08-06T04:13:47.329Z,3.88
2023-08-06T04:16:15.829Z,9.25
2023-08-06T04:18:42.497Z,4.15
2023-08-06T04:21:10.032Z,2.97
2023-08-06T04:23:36.440Z,3.63
2023-08-06T04:26:02.976Z,4.20
2023-08-06T04:28:29.470Z,2.03
2023-08-06T04:30:55.856Z,3.00
2023-08-06T04:33:22.274Z,2.50
2023-08-06T04:35:48.657Z,2.33
2023-08-06T04:38:15.087Z,4.57
2023-08-06T04:40:41.881Z,1.90
2023-08-06T04:43:08.287Z,4.13
2023-08-06T04:45:34.774Z,3.63
2023-08-06T04:48:01.222Z,5.47
2023-08-06T04:50:30.743Z,10.23
2023-08-06T04:52:57.107Z,3.75
2023-08-06T04:55:23.461Z,3.92
2023-08-06T04:57:49.857Z,3.67
2023-08-06T05:00:16.220Z,4.28
2023-08-06T05:02:42.652Z,3.33
2023-08-06T05:05:09.151Z,4.00
2023-08-06T05:07:35.577Z,4.18
2023-08-06T05:10:01.980Z,4.07
2023-08-06T05:12:28.353Z,4.93
2023-08-06T05:14:54.956Z,2.85
2023-08-06T05:17:21.401Z,5.28
2023-08-06T05:19:47.820Z,7.38
2023-08-06T05:22:14.150Z,4.43
2023-08-06T05:24:40.560Z,5.32
2023-08-06T05:27:06.973Z,2.95
2023-08-06T05:29:33.336Z,5.72
2023-08-06T05:31:59.770Z,3.88
2023-08-06T05:34:26.273Z,4.43
2023-08-06T05:36:53.810Z,3.25
2023-08-06T05:39:20.169Z,3.28
2023-08-06T05:41:46.514Z,5.70
2023-08-06T05:44:12.928Z,3.55
2023-08-06T05:46:39.281Z,2.63
2023-08-06T05:49:06.200Z,3.78
2023-08-06T05:51:32.726Z,2.78
2023-08-06T05:54:00.635Z,4.00
2023-08-06T05:56:27.209Z,4.55
2023-08-06T05:58:54.284Z,3.17
2023-08-06T06:01:20.793Z,7.38
2023-08-06T06:03:47.312Z,1.23
2023-08-06T06:06:15.752Z,3.47
2023-08-06T06:08:43.559Z,1.60
2023-08-06T06:11:09.920Z,4.68
2023-08-06T06:13:36.338Z,3.88
2023-08-06T06:16:02.829Z,1.17
2023-08-06T06:18:29.267Z,2.22
2023-08-06T06:20:55.661Z,2.15
2023-08-06T06:23:22.070Z,2.42
2023-08-06T06:25:49.475Z,5.32
2023-08-06T06:28:15.878Z,3.38
2023-08-06T06:30:43.194Z,0.75
2023-08-06T06:33:09.642Z,4.10
2023-08-06T06:35:36.029Z,3.28
2023-08-06T06:38:03.642Z,0.70
2023-08-06T06:40:30.068Z,2.13
2023-08-06T06:42:56.405Z,3.67
2023-08-06T06:45:22.911Z,1.33
2023-08-06T06:47:49.350Z,2.88
2023-08-06T06:50:15.820Z,1.08
2023-08-06T06:52:42.315Z,9.55
2023-08-06T06:55:08.877Z,1.33
2023-08-06T06:57:35.322Z,5.32
2023-08-06T07:00:02.284Z,2.72
2023-08-06T07:02:30.211Z,1.77
2023-08-06T07:04:56.706Z,4.80
2023-08-06T07:07:23.108Z,2.55
2023-08-06T07:09:49.567Z,4.10
2023-08-06T07:12:16.014Z,3.97
2023-08-06T07:14:42.419Z,4.05
2023-08-06T07:17:08.795Z,8.30
2023-08-06T07:19:35.194Z,5.05
2023-08-06T07:22:01.610Z,2.85
2023-08-06T07:24:28.019Z,2.90
2023-08-06T07:26:54.401Z,1.90
2023-08-06T07:29:22.766Z,6.10
2023-08-06T07:31:50.674Z,4.78
2023-08-06T07:34:17.120Z,2.47
2023-08-06T07:36:47.107Z,2.90
2023-08-06T07:39:13.561Z,3.65
2023-08-06T07:41:40.142Z,2.03
2023-08-06T07:44:06.605Z,2.80
2023-08-06T07:46:33.126Z,3.20
2023-08-06T07:48:59.622Z,5.38
2023-08-06T07:51:26.027Z,3.97
2023-08-06T07:53:52.488Z,5.63
2023-08-06T07:56:19.044Z,2.15
2023-08-06T07:58:45.778Z,2.92
2023-08-06T08:01:12.224Z,5.38
2023-08-06T08:03:38.797Z,3.10
2023-08-06T08:06:05.262Z,4.03
2023-08-06T08:08:31.646Z,4.88
2023-08-06T08:11:00.039Z,2.35
2023-08-06T08:13:26.430Z,2.35
2023-08-06T08:15:57.457Z,4.15
2023-08-06T08:18:24.513Z,3.92
2023-08-06T08:20:50.893Z,1.50
2023-08-06T08:23:17.249Z,2.75
2023-08-06T08:25:43.649Z,1.75
2023-08-06T08:28:10.023Z,1.80
2023-08-06T08:30:36.456Z,3.13
2023-08-06T08:33:02.905Z,3.97
2023-08-06T08:35:29.325Z,2.63
2023-08-06T08:37:55.765Z,3.25
2023-08-06T08:40:23.338Z,2.50
2023-08-06T08:42:49.951Z,4.20
2023-08-06T08:45:16.369Z,4.80
2023-08-06T08:47:44.122Z,2.92
2023-08-06T08:50:12.229Z,1.73
2023-08-06T08:52:39.636Z,1.98
2023-08-06T08:55:06.255Z,3.63
2023-08-06T08:57:32.790Z,2.65
2023-08-06T08:59:59.256Z,3.05
2023-08-06T09:02:27.492Z,3.30
2023-08-06T09:04:54.678Z,3.30
2023-08-06T09:07:22.371Z,3.60
2023-08-06T09:09:50.039Z,1.45
2023-08-06T09:12:17.355Z,2.10
2023-08-06T09:14:44.126Z,3.78
2023-08-06T09:17:11.989Z,3.92
2023-08-06T09:19:38.466Z,2.05
2023-08-06T09:22:05.918Z,4.43
2023-08-06T09:24:32.301Z,2.65
2023-08-06T09:27:04.270Z,1.25
2023-08-06T09:29:32.073Z,2.10
2023-08-06T09:31:59.412Z,1.90
2023-08-06T09:34:26.097Z,3.47
2023-08-06T09:36:53.491Z,2.53
2023-08-06T09:39:20.592Z,1.85
2023-08-06T09:41:49.316Z,3.20
2023-08-06T09:44:19.594Z,2.08
2023-08-06T09:46:52.823Z,1.30
2023-08-06T09:49:22.038Z,1.90
2023-08-06T09:51:52.662Z,1.70
2023-08-06T09:54:27.593Z,1.27
2023-08-06T09:56:55.684Z,1.13
2023-08-06T09:59:22.440Z,1.17
2023-08-06T10:01:49.483Z,2.17
2023-08-06T10:04:23.611Z,6.38
2023-08-06T10:06:51.495Z,1.65
2023-08-06T10:09:19.350Z,1.38
2023-08-06T10:11:49.224Z,2.55
2023-08-06T10:14:24.243Z,5.97
2023-08-06T10:16:51.530Z,2.15
2023-08-06T10:19:18.989Z,2.03
2023-08-06T10:22:17.989Z,2.75
2023-08-06T10:24:50.271Z,1.50
2023-08-06T10:27:35.610Z,2.30
2023-08-06T10:30:25.190Z,5.13
2023-08-06T10:32:53.013Z,2.67
2023-08-06T10:35:38.546Z,3.15
2023-08-06T10:38:08.055Z,2.97
2023-08-06T10:40:34.673Z,3.47
2023-08-06T10:43:02.075Z,5.72
2023-08-06T10:45:30.118Z,2.35
2023-08-06T10:47:59.877Z,2.03
2023-08-06T10:50:26.600Z,2.30
2023-08-06T10:52:53.434Z,6.07
2023-08-06T10:55:30.192Z,1.88
2023-08-06T10:57:57.040Z,2.63
2023-08-06T11:00:24.810Z,1.42
2023-08-06T11:02:52.304Z,2.55
2023-08-06T11:05:18.933Z,1.52
2023-08-06T11:07:45.618Z,2.20
2023-08-06T11:10:13.385Z,4.70
2023-08-06T11:12:39.997Z,1.95
2023-08-06T11:15:06.854Z,2.67
2023-08-06T11:17:34.088Z,1.42
2023-08-06T11:20:04.438Z,2.17
2023-08-06T11:22:30.819Z,2.05
2023-08-06T11:24:57.281Z,2.08
2023-08-06T11:27:23.782Z,1.40
2023-08-06T11:29:50.218Z,1.13
2023-08-06T11:32:18.004Z,1.92
2023-08-06T11:34:44.980Z,4.00
2023-08-06T11:37:11.698Z,2.80
2023-08-06T11:39:38.930Z,1.55
2023-08-06T11:42:08.073Z,1.40
2023-08-06T11:44:37.572Z,0.55
2023-08-06T11:47:05.670Z,1.27
2023-08-06T11:49:42.438Z,1.40
2023-08-06T11:52:29.169Z,3.63
2023-08-06T11:55:02.380Z,2.17
2023-08-06T11:57:30.014Z,2.17
2023-08-06T11:59:56.399Z,2.28
2023-08-06T12:02:24.899Z,1.95
2023-08-06T12:05:01.446Z,0.43
2023-08-06T12:07:29.580Z,2.25
2023-08-06T12:09:55.991Z,0.45
2023-08-06T12:12:22.451Z,2.75
2023-08-06T12:14:49.000Z,3.33
2023-08-06T12:17:15.371Z,3.55
2023-08-06T12:19:41.792Z,1.00
2023-08-06T12:22:08.190Z,2.53
2023-08-06T12:24:35.107Z,0.77
2023-08-06T12:27:03.312Z,0.85
2023-08-06T12:29:29.763Z,1.05
2023-08-06T12:31:56.494Z,1.85
2023-08-06T12:34:26.027Z,4.50
2023-08-06T12:36:53.861Z,3.35
2023-08-06T12:39:20.402Z,5.00
2023-08-06T12:41:47.081Z,1.88
2023-08-06T12:44:13.666Z,2.38
2023-08-06T12:46:40.390Z,1.48
2023-08-06T12:49:06.916Z,2.58
2023-08-06T12:51:34.805Z,0.75
2023-08-06T12:54:01.382Z,1.65
2023-08-06T12:56:27.761Z,4.18
2023-08-06T12:58:54.120Z,0.63
2023-08-06T13:01:20.505Z,1.92
2023-08-06T13:03:47.137Z,1.33
2023-08-06T13:06:13.627Z,2.13
2023-08-06T13:08:40.121Z,3.45
2023-08-06T13:11:06.497Z,5.90
2023-08-06T13:13:32.858Z,0.95
2023-08-06T13:15:59.214Z,4.32
2023-08-06T13:18:25.592Z,3.58
2023-08-06T13:20:55.486Z,3.33
2023-08-06T13:23:22.150Z,3.75
2023-08-06T13:25:48.485Z,4.22
2023-08-06T13:28:15.086Z,5.90
2023-08-06T13:30:43.295Z,5.28
2023-08-06T13:33:10.182Z,5.35
2023-08-06T13:35:36.669Z,6.43
2023-08-06T13:38:04.011Z,7.00
2023-08-06T13:40:31.295Z,1.77
2023-08-06T13:42:58.278Z,5.43
2023-08-06T13:45:24.897Z,4.70
2023-08-06T13:47:51.358Z,1.75
2023-08-06T13:50:17.974Z,5.43
2023-08-06T13:52:44.430Z,6.90
2023-08-06T13:55:10.805Z,2.88
2023-08-06T13:57:37.244Z,4.97
2023-08-06T14:00:04.086Z,3.13
2023-08-06T14:02:30.610Z,5.25
2023-08-06T14:04:57.040Z,6.13
2023-08-06T14:07:23.389Z,5.93
2023-08-06T14:09:50.489Z,2.67
2023-08-06T14:12:16.927Z,3.65
2023-08-06T14:14:43.318Z,2.17
2023-08-06T14:17:09.740Z,6.40
2023-08-06T14:19:36.079Z,6.53
2023-08-06T14:22:02.419Z,4.40
2023-08-06T14:24:28.789Z,3.33
2023-08-06T14:26:55.291Z,4.32
2023-08-06T14:29:21.830Z,5.28
2023-08-06T14:31:48.269Z,4.18
2023-08-06T14:34:14.752Z,5.68
2023-08-06T14:36:41.085Z,5.72
2023-08-06T14:39:07.527Z,5.18
2023-08-06T14:41:33.885Z,5.13
2023-08-06T14:44:00.389Z,5.15
2023-08-06T14:46:26.852Z,3.70
2023-08-06T14:48:53.283Z,4.35
2023-08-06T14:51:21.342Z,6.22
2023-08-06T14:53:47.981Z,5.00
2023-08-06T14:56:14.369Z,4.65
2023-08-06T14:58:40.737Z,8.52
2023-08-06T15:01:07.255Z,4.32
2023-08-06T15:03:34.574Z,5.00
2023-08-06T15:06:01.011Z,4.85
2023-08-06T15:08:27.380Z,5.40
2023-08-06T15:10:53.891Z,8.32
2023-08-06T15:13:20.643Z,8.63
2023-08-06T15:15:50.955Z,7.90
2023-08-06T15:18:17.415Z,8.48
2023-08-06T15:20:43.801Z,6.93
2023-08-06T15:23:10.200Z,10.90
2023-08-06T15:25:36.664Z,4.15
2023-08-06T15:28:03.002Z,5.93
2023-08-06T15:30:29.460Z,8.50
2023-08-06T15:32:55.976Z,7.18
2023-08-06T15:35:22.380Z,4.93
2023-08-06T15:37:48.824Z,8.32
2023-08-06T15:40:15.580Z,4.50
2023-08-06T15:42:41.930Z,6.60
2023-08-06T15:45:08.656Z,8.68
2023-08-06T15:47:41.051Z,11.80
2023-08-06T15:50:09.091Z,8.68
2023-08-06T15:52:36.013Z,6.38
2023-08-06T15:55:06.222Z,10.57
2023-08-06T15:57:33.248Z,6.53
2023-08-06T15:59:59.633Z,12.82
2023-08-06T16:02:26.034Z,7.63
2023-08-06T16:04:52.485Z,8.80
2023-08-06T16:07:20.371Z,9.60
2023-08-06T16:09:46.832Z,10.95
2023-08-06T16:12:13.250Z,7.35
2023-08-06T16:14:42.804Z,9.95
2023-08-06T16:17:09.206Z,8.32
2023-08-06T16:19:35.581Z,8.85
2023-08-06T16:22:01.953Z,12.50
2023-08-06T16:24:28.378Z,5.07
2023-08-06T16:26:55.021Z,11.00
2023-08-06T16:29:21.711Z,5.05
2023-08-06T16:31:48.152Z,3.45
2023-08-06T16:34:14.596Z,3.45
2023-08-06T16:36:41.003Z,4.55
2023-08-06T16:39:07.394Z,6.28
2023-08-06T16:41:33.779Z,7.28
2023-08-06T16:44:00.237Z,11.45
2023-08-06T16:46:26.775Z,10.48
2023-08-06T16:48:53.158Z,4.95
2023-08-06T16:51:19.525Z,8.38
2023-08-06T16:53:45.939Z,10.75
2023-08-06T16:56:12.381Z,9.38
2023-08-06T16:58:39.062Z,6.50
2023-08-06T17:01:08.704Z,3.25
2023-08-06T17:03:35.660Z,7.68
2023-08-06T17:06:02.955Z,7.65
2023-08-06T17:08:34.959Z,8.57
2023-08-06T17:11:04.645Z,5.90
2023-08-06T17:13:31.292Z,7.25
2023-08-06T17:15:58.148Z,9.48
2023-08-06T17:18:24.651Z,7.28
2023-08-06T17:20:50.989Z,6.32
2023-08-06T17:23:17.392Z,12.52
2023-08-06T17:25:44.602Z,11.23
2023-08-06T17:28:11.127Z,11.27
2023-08-06T17:30:39.499Z,10.85
2023-08-06T17:33:05.940Z,11.73
2023-08-06T17:35:34.357Z,11.25
2023-08-06T17:38:00.870Z,10.82
2023-08-06T17:40:28.277Z,2.80
2023-08-06T17:42:54.849Z,4.35
2023-08-06T17:45:22.079Z,4.28
2023-08-06T17:47:48.857Z,3.83
2023-08-06T17:50:15.719Z,6.53
2023-08-06T17:52:42.116Z,5.13
2023-08-06T17:55:08.709Z,5.03
2023-08-06T17:57:35.086Z,6.20
2023-08-06T18:00:01.609Z,6.97
2023-08-06T18:02:28.027Z,3.58
2023-08-06T18:04:54.554Z,7.60
2023-08-06T18:07:20.907Z,6.10
2023-08-06T18:09:47.304Z,4.90
2023-08-06T18:12:13.701Z,7.90
2023-08-06T18:14:40.164Z,5.93
2023-08-06T18:17:06.717Z,10.15
2023-08-06T18:19:33.122Z,7.00
2023-08-06T18:22:01.217Z,7.13
2023-08-06T18:24:27.901Z,5.53
2023-08-06T18:26:54.420Z,10.75
2023-08-06T18:29:20.940Z,9.68
2023-08-06T18:31:47.392Z,8.02
2023-08-06T18:34:13.762Z,2.90
2023-08-06T18:36:40.134Z,8.38
2023-08-06T18:39:06.521Z,12.65
2023-08-06T18:41:34.289Z,10.07
2023-08-06T18:44:00.662Z,9.52
2023-08-06T18:46:27.039Z,10.85
2023-08-06T18:48:53.509Z,4.28
2023-08-06T18:51:21.047Z,5.38
2023-08-06T18:53:47.487Z,8.65
2023-08-06T18:56:13.893Z,4.72
2023-08-06T18:58:40.368Z,8.25
2023-08-06T19:01:06.738Z,7.75
2023-08-06T19:03:33.180Z,8.15
2023-08-06T19:06:01.105Z,7.75
2023-08-06T19:08:27.590Z,5.75
2023-08-06T19:10:54.010Z,4.40
2023-08-06T19:13:20.450Z,8.00
2023-08-06T19:15:47.592Z,11.05
2023-08-06T19:18:14.085Z,9.82
2023-08-06T19:20:44.070Z,8.20
2023-08-06T19:23:10.922Z,13.55
2023-08-06T19:25:41.165Z,7.90
2023-08-06T19:28:12.040Z,13.45
2023-08-06T19:30:42.016Z,5.47
2023-08-06T19:33:09.102Z,11.68
2023-08-06T19:35:35.623Z,7.68
2023-08-06T19:38:01.965Z,10.70
2023-08-06T19:40:28.360Z,5.15
2023-08-06T19:42:54.724Z,9.45
2023-08-06T19:45:21.178Z,7.38
2023-08-06T19:47:47.660Z,7.10
2023-08-06T19:50:14.042Z,3.15
2023-08-06T19:52:42.315Z,12.63
2023-08-06T19:55:09.061Z,9.05
2023-08-06T19:57:35.431Z,6.13
2023-08-06T20:00:01.973Z,10.70
2023-08-06T20:02:28.419Z,6.07
2023-08-06T20:04:54.842Z,16.67
2023-08-06T20:07:21.246Z,9.38
2023-08-06T20:09:47.632Z,7.22
2023-08-06T20:12:14.006Z,11.30
2023-08-06T20:14:40.407Z,9.68
2023-08-06T20:17:07.482Z,6.80
2023-08-06T20:19:34.743Z,11.10
2023-08-06T20:22:01.088Z,7.78
2023-08-06T20:24:27.478Z,7.60
2023-08-06T20:26:53.843Z,4.45
2023-08-06T20:29:20.238Z,4.22
2023-08-06T20:31:46.628Z,12.23
2023-08-06T20:34:13.009Z,10.85
2023-08-06T20:36:39.373Z,4.68
2023-08-06T20:39:05.791Z,5.93
2023-08-06T20:41:32.533Z,7.88
2023-08-06T20:44:00.199Z,7.90
2023-08-06T20:46:26.707Z,5.88
2023-08-06T20:48:53.109Z,7.57
2023-08-06T20:51:19.461Z,6.72
2023-08-06T20:53:46.124Z,7.78
2023-08-06T20:56:13.825Z,4.30
2023-08-06T20:58:40.424Z,6.88
2023-08-06T21:01:07.008Z,11.13
2023-08-06T21:03:33.518Z,7.72
2023-08-06T21:06:01.074Z,5.55
2023-08-06T21:08:27.600Z,8.95
2023-08-06T21:10:54.062Z,6.65
2023-08-06T21:13:20.474Z,5.80
2023-08-06T21:15:46.866Z,8.32
2023-08-06T21:18:13.281Z,5.13
2023-08-06T21:20:39.659Z,5.55
2023-08-06T21:23:06.190Z,7.05
2023-08-06T21:25:32.561Z,7.60
2023-08-06T21:27:59.053Z,4.90
2023-08-06T21:30:25.462Z,7.25
2023-08-06T21:32:51.945Z,7.82
2023-08-06T21:35:18.436Z,5.18
2023-08-06T21:37:44.808Z,5.53
2023-08-06T21:40:11.711Z,11.52
2023-08-06T21:42:38.103Z,8.32
2023-08-06T21:45:04.742Z,8.18
2023-08-06T21:47:31.147Z,11.23
2023-08-06T21:49:57.610Z,12.05
2023-08-06T21:52:26.930Z,11.75
2023-08-06T21:54:53.291Z,9.43
2023-08-06T21:57:19.720Z,8.32
2023-08-06T21:59:46.089Z,7.15
2023-08-06T22:02:12.492Z,16.20
2023-08-06T22:04:39.415Z,12.25
2023-08-06T22:07:05.978Z,6.13
2023-08-06T22:09:32.449Z,6.82
2023-08-06T22:11:58.814Z,7.93
2023-08-06T22:14:25.348Z,9.52
2023-08-06T22:16:51.768Z,12.40
2023-08-06T22:19:18.176Z,11.32
2023-08-06T22:21:44.598Z,9.75
2023-08-06T22:24:11.085Z,12.55
2023-08-06T22:26:37.526Z,18.35
2023-08-06T22:29:03.906Z,7.88
2023-08-06T22:31:30.320Z,11.70
2023-08-06T22:33:56.874Z,10.55
2023-08-06T22:36:23.442Z,14.40
2023-08-06T22:38:50.137Z,7.70
2023-08-06T22:41:16.758Z,9.23
2023-08-06T22:43:43.159Z,8.45
2023-08-06T22:46:09.734Z,10.80
2023-08-06T22:48:36.208Z,7.57
2023-08-06T22:51:03.218Z,10.65
2023-08-06T22:53:29.613Z,9.13
2023-08-06T22:56:08.537Z,9.23
2023-08-06T22:58:36.037Z,9.25
2023-08-06T23:01:03.111Z,6.03
2023-08-06T23:03:29.655Z,8.43
2023-08-06T23:05:56.079Z,6.43
2023-08-06T23:08:22.414Z,9.48
2023-08-06T23:10:48.837Z,3.95
2023-08-06T23:13:15.514Z,11.75
2023-08-06T23:15:43.405Z,6.75
2023-08-06T23:18:09.787Z,7.70
2023-08-06T23:20:36.382Z,9.02
2023-08-06T23:23:02.800Z,11.57
2023-08-06T23:25:29.185Z,18.50
2023-08-06T23:27:55.532Z,6.55
2023-08-06T23:30:21.917Z,12.30
2023-08-06T23:32:50.890Z,8.98
2023-08-06T23:35:17.856Z,13.27
2023-08-06T23:37:44.237Z,10.02
2023-08-06T23:40:10.802Z,9.43
2023-08-06T23:42:37.235Z,4.47
2023-08-06T23:45:03.725Z,8.38
2023-08-06T23:47:30.134Z,7.70
2023-08-06T23:49:56.651Z,10.95
2023-08-06T23:52:23.047Z,11.07
2023-08-06T23:54:49.444Z,7.45
2023-08-06T23:57:16.956Z,5.10
2023-08-06T23:59:43.306Z,9.23
